createdAt,value
2023-01-12T00:01:06.918Z,5.10
2023-01-12T00:03:34.503Z,6.80
2023-01-12T00:06:04.214Z,4.40
2023-01-12T00:08:32.589Z,6.60
2023-01-12T00:10:59.949Z,6.30
2023-01-12T00:13:29.689Z,5.80
2023-01-12T00:16:20.114Z,4.60
2023-01-12T00:18:47.913Z,4.70
2023-01-12T00:21:15.580Z,5.20
2023-01-12T00:23:43.947Z,5.80
2023-01-12T00:26:11.867Z,5.50
2023-01-12T00:28:39.368Z,6.10
2023-01-12T00:31:08.822Z,5.90
2023-01-12T00:33:39.831Z,5.70
2023-01-12T00:36:10.552Z,5.50
2023-01-12T00:38:38.834Z,4.70
2023-01-12T00:41:07.828Z,6.20
2023-01-12T00:43:54.339Z,5.30
2023-01-12T00:46:34.525Z,5.30
2023-01-12T00:49:02.168Z,5.70
2023-01-12T00:51:29.598Z,6.70
2023-01-12T00:53:56.984Z,6.60
2023-01-12T00:56:24.716Z,5.50
2023-01-12T00:58:52.582Z,5.60
2023-01-12T01:01:21.737Z,6.20
2023-01-12T01:03:49.550Z,6.60
2023-01-12T01:06:17.414Z,7.40
2023-01-12T01:08:45.274Z,8.40
2023-01-12T01:11:13.194Z,7.80
2023-01-12T01:13:41.725Z,5.40
2023-01-12T01:16:09.906Z,5.70
2023-01-12T01:18:37.667Z,5.40
2023-01-12T01:21:05.835Z,6.40
2023-01-12T01:23:34.353Z,6.50
2023-01-12T01:26:13.547Z,7.00
2023-01-12T01:28:41.541Z,5.90
2023-01-12T01:31:14.244Z,5.30
2023-01-12T01:33:42.780Z,5.40
2023-01-12T01:36:10.750Z,5.70
2023-01-12T01:38:38.700Z,5.40
2023-01-12T01:41:07.231Z,5.90
2023-01-12T01:43:58.820Z,5.50
2023-01-12T01:46:49.218Z,5.80
2023-01-12T01:49:30.386Z,6.00
2023-01-12T01:52:01.247Z,6.10
2023-01-12T01:54:29.743Z,7.70
2023-01-12T01:56:57.371Z,6.60
2023-01-12T01:59:28.767Z,6.20
2023-01-12T02:01:57.267Z,4.80
2023-01-12T02:04:26.209Z,5.50
2023-01-12T02:06:56.280Z,5.10
2023-01-12T02:09:27.374Z,4.60
2023-01-12T02:12:14.292Z,6.30
2023-01-12T02:15:01.407Z,5.10
2023-01-12T02:17:39.902Z,5.00
2023-01-12T02:20:27.433Z,4.30
2023-01-12T02:23:22.789Z,5.40
2023-01-12T02:26:01.966Z,4.60
2023-01-12T02:29:09.050Z,4.60
2023-01-12T02:31:56.703Z,4.50
2023-01-12T02:34:33.045Z,5.40
2023-01-12T02:37:15.247Z,5.10
2023-01-12T02:39:51.149Z,5.20
2023-01-12T02:42:41.442Z,4.70
2023-01-12T02:45:27.793Z,6.00
2023-01-12T02:48:27.915Z,4.40
2023-01-12T02:51:00.075Z,4.00
2023-01-12T02:53:31.440Z,4.80
2023-01-12T02:56:00.318Z,5.20
2023-01-12T02:58:28.004Z,6.10
2023-01-12T03:00:57.392Z,5.40
2023-01-12T03:03:25.249Z,6.20
2023-01-12T03:06:00.913Z,5.80
2023-01-12T03:08:29.691Z,4.70
2023-01-12T03:11:00.124Z,4.60
2023-01-12T03:13:29.562Z,4.90
2023-01-12T03:15:57.281Z,6.20
2023-01-12T03:18:29.346Z,5.40
2023-01-12T03:21:03.875Z,5.70
2023-01-12T03:23:36.498Z,5.90
2023-01-12T03:26:04.004Z,5.90
2023-01-12T03:28:34.633Z,5.10
2023-01-12T03:31:09.729Z,5.00
2023-01-12T03:33:40.927Z,4.40
2023-01-12T03:36:40.957Z,5.60
2023-01-12T03:39:17.401Z,5.60
2023-01-12T03:41:58.309Z,5.20
2023-01-12T03:44:43.752Z,4.40
2023-01-12T03:47:15.153Z,4.90
2023-01-12T03:49:52.862Z,5.20
2023-01-12T03:52:20.353Z,6.00
2023-01-12T03:54:48.227Z,5.20
2023-01-12T03:57:17.119Z,4.10
2023-01-12T03:59:44.685Z,5.60
2023-01-12T04:02:12.963Z,4.20
2023-01-12T08:19:13.593Z,7.10
2023-01-12T08:21:46.272Z,6.80
2023-01-12T08:24:15.281Z,7.30
2023-01-12T08:26:43.834Z,6.90
2023-01-12T08:29:17.661Z,7.40
2023-01-12T08:31:48.063Z,6.90
2023-01-12T08:34:15.630Z,15.40
2023-01-12T08:36:44.431Z,10.20
2023-01-12T08:39:13.107Z,6.40
2023-01-12T08:41:42.533Z,5.70
2023-01-12T08:44:11.388Z,4.90
2023-01-12T08:46:46.804Z,5.00
2023-01-12T08:49:16.845Z,4.80
2023-01-12T08:51:45.120Z,5.80
2023-01-12T08:54:13.754Z,7.20
2023-01-12T08:56:41.416Z,6.90
2023-01-12T08:59:09.134Z,7.20
2023-01-12T09:01:36.912Z,6.40
2023-01-12T09:04:05.278Z,6.50
2023-01-12T09:06:37.504Z,5.10
2023-01-12T09:09:06.900Z,5.80
2023-01-12T09:11:35.662Z,4.70
2023-01-12T09:14:03.673Z,5.30
2023-01-12T09:16:31.964Z,6.30
2023-01-12T09:18:59.769Z,5.30
2023-01-12T09:21:28.422Z,6.00
2023-01-12T09:23:56.396Z,5.90
2023-01-12T09:26:24.529Z,6.10
2023-01-12T09:28:52.346Z,4.90
2023-01-12T09:31:22.774Z,4.60
2023-01-12T09:33:50.537Z,5.10
2023-01-12T09:36:20.147Z,5.00
2023-01-12T09:38:47.920Z,5.10
2023-01-12T09:41:46.919Z,5.40
2023-01-12T09:44:50.392Z,4.70
2023-01-12T09:47:19.894Z,4.70
2023-01-12T09:50:04.616Z,5.10
2023-01-12T09:52:48.893Z,5.30
2023-01-12T09:55:23.970Z,5.20
2023-01-12T09:58:04.733Z,4.60
2023-01-12T10:00:32.633Z,5.50
2023-01-12T10:03:25.514Z,6.50
2023-01-12T10:05:54.826Z,5.20
2023-01-12T10:08:46.556Z,4.80
2023-01-12T10:11:38.856Z,5.30
2023-01-12T10:14:44.515Z,5.00
2023-01-12T10:17:51.245Z,4.30
2023-01-12T10:20:28.831Z,5.50
2023-01-12T10:23:10.512Z,4.80
2023-01-12T10:28:42.592Z,5.50
2023-01-12T10:31:19.910Z,5.30
2023-01-12T10:34:07.472Z,5.60
2023-01-12T10:36:36.409Z,5.40
2023-01-12T10:39:05.271Z,5.30
2023-01-12T10:41:34.029Z,6.50
2023-01-12T10:44:20.280Z,6.70
2023-01-12T10:47:08.515Z,5.50
2023-01-12T10:49:36.596Z,5.40
2023-01-12T10:52:11.591Z,6.90
2023-01-12T10:54:41.764Z,5.70
2023-01-12T10:57:22.723Z,6.60
2023-01-12T11:00:01.021Z,5.50
2023-01-12T11:02:30.631Z,4.80
2023-01-12T11:04:58.199Z,5.50
2023-01-12T11:07:29.654Z,7.30
2023-01-12T11:10:27.104Z,7.60
2023-01-12T11:13:03.843Z,8.30
2023-01-12T11:15:39.552Z,10.70
2023-01-12T11:18:26.143Z,6.80
2023-01-12T11:21:13.502Z,6.60
2023-01-12T11:23:45.522Z,5.60
2023-01-12T11:26:18.730Z,6.70
2023-01-12T11:28:48.641Z,6.20
2023-01-12T11:31:24.281Z,6.70
2023-01-12T11:33:54.802Z,7.20
2023-01-12T11:36:31.123Z,6.90
2023-01-12T11:39:05.188Z,6.90
2023-01-12T11:41:41.655Z,6.10
2023-01-12T11:44:14.637Z,5.70
2023-01-12T11:46:47.028Z,7.10
2023-01-12T11:49:24.108Z,6.10
2023-01-12T11:51:56.916Z,6.80
2023-01-12T11:54:25.859Z,6.00
2023-01-12T11:57:13.292Z,5.50
2023-01-12T12:00:00.305Z,7.40
2023-01-12T12:02:48.581Z,5.90
2023-01-12T12:05:27.879Z,6.20
2023-01-12T12:08:17.827Z,6.20
2023-01-12T12:11:09.279Z,7.50
2023-01-12T12:14:04.591Z,7.30
2023-01-12T12:16:38.784Z,6.50
2023-01-12T12:19:23.364Z,6.80
2023-01-12T12:21:55.837Z,8.30
2023-01-12T12:24:52.990Z,7.30
2023-01-12T12:27:27.104Z,7.00
2023-01-12T12:30:22.409Z,6.80
2023-01-12T12:33:07.171Z,6.90
2023-01-12T12:36:17.441Z,8.90
2023-01-12T12:38:54.139Z,7.20
2023-01-12T12:41:43.479Z,6.90
2023-01-12T12:45:07.434Z,8.50
2023-01-12T12:47:53.281Z,7.00
2023-01-12T12:50:21.927Z,7.20
2023-01-12T12:53:00.956Z,7.80
2023-01-12T12:55:28.824Z,7.30
2023-01-12T12:58:04.842Z,7.70
2023-01-12T13:00:43.863Z,8.40
2023-01-12T15:34:03.160Z,10.90
2023-01-12T15:36:30.619Z,11.30
2023-01-12T15:38:58.282Z,10.40
2023-01-12T15:41:46.842Z,10.40
2023-01-12T15:44:19.203Z,10.60
2023-01-12T15:46:46.824Z,11.10
2023-01-12T15:49:14.635Z,10.50
2023-01-12T15:51:43.001Z,11.80
2023-01-12T15:54:10.664Z,12.80
2023-01-12T15:56:38.633Z,13.10
2023-01-12T15:59:06.295Z,11.50
2023-01-12T16:01:49.939Z,11.60
2023-01-12T16:04:42.236Z,11.50
2023-01-12T16:07:10.648Z,11.30
2023-01-12T16:09:41.201Z,11.70
2023-01-12T16:12:08.912Z,12.20
2023-01-12T16:14:36.608Z,10.20
2023-01-12T16:17:04.889Z,10.10
2023-01-12T16:19:34.749Z,10.80
2023-01-12T16:22:03.995Z,8.30
2023-01-12T16:24:32.610Z,10.60
2023-01-12T16:27:00.752Z,11.10
2023-01-12T16:29:28.409Z,10.40
2023-01-12T16:31:57.123Z,8.50
2023-01-12T16:34:25.261Z,7.70
2023-01-12T16:36:53.028Z,8.40
2023-01-12T16:39:20.481Z,8.80
2023-01-12T16:41:48.553Z,9.60
2023-01-12T16:44:16.229Z,8.60
2023-01-12T16:46:45.308Z,8.00
2023-01-12T16:49:12.869Z,7.70
2023-01-12T16:51:40.633Z,8.70
2023-01-12T16:54:08.500Z,10.00
2023-01-12T16:56:36.058Z,8.80
2023-01-12T16:59:03.825Z,8.30
2023-01-12T17:01:31.540Z,8.60
2023-01-12T17:04:00.682Z,7.90
2023-01-12T17:06:29.366Z,8.50
2023-01-12T17:08:57.294Z,7.60
2023-01-12T17:11:26.331Z,8.80
2023-01-12T17:13:55.454Z,8.80
2023-01-12T17:16:25.096Z,8.10
2023-01-12T17:18:54.025Z,10.20
2023-01-12T17:21:23.530Z,10.50
2023-01-12T17:23:52.625Z,8.60
2023-01-12T17:26:20.503Z,9.70
2023-01-12T17:28:49.319Z,9.50
2023-01-12T17:31:19.011Z,8.40
2023-01-12T17:33:47.063Z,9.20
2023-01-12T17:36:14.840Z,7.80
2023-01-12T17:38:42.820Z,7.40
2023-01-12T17:41:34.609Z,7.50
2023-01-12T17:44:04.740Z,8.10
2023-01-12T17:46:32.419Z,7.40
2023-01-12T17:49:01.188Z,10.00
2023-01-12T17:51:28.860Z,10.20
2023-01-12T17:53:58.043Z,11.70
2023-01-12T17:56:26.018Z,11.60
2023-01-12T17:58:53.807Z,11.20
2023-01-12T18:01:22.459Z,10.60
2023-01-12T18:03:50.844Z,9.60
2023-01-12T18:06:26.392Z,8.60
2023-01-12T18:09:02.243Z,9.80
2023-01-12T18:11:31.858Z,9.10
2023-01-12T18:14:00.913Z,9.40
2023-01-12T18:16:28.812Z,7.90
2023-01-12T18:18:56.583Z,8.90
2023-01-12T18:21:26.200Z,9.40
2023-01-12T18:23:54.452Z,9.20
2023-01-12T18:26:25.614Z,12.00
2023-01-12T18:28:57.269Z,9.90
2023-01-12T18:31:27.193Z,10.40
2023-01-12T18:34:10.620Z,9.50
2023-01-12T18:36:39.796Z,11.10
2023-01-12T18:39:09.614Z,9.30
2023-01-12T18:41:56.339Z,9.90
2023-01-12T18:44:24.735Z,10.40
2023-01-12T18:47:11.229Z,10.30
2023-01-12T18:49:42.346Z,7.00
2023-01-12T18:52:29.773Z,7.20
2023-01-12T18:54:59.071Z,7.20
2023-01-12T18:57:28.804Z,8.10
2023-01-12T19:00:04.952Z,9.30
2023-01-12T19:02:33.043Z,10.60
2023-01-12T19:05:20.346Z,9.20
2023-01-12T19:07:57.837Z,9.50
2023-01-12T19:10:26.203Z,8.60
2023-01-12T19:13:14.137Z,9.40
2023-01-12T19:16:00.924Z,9.70
2023-01-12T19:18:29.025Z,8.80
2023-01-12T19:21:22.698Z,7.60
2023-01-12T19:24:08.992Z,8.40
2023-01-12T19:26:55.692Z,12.00
2023-01-12T19:29:24.089Z,6.50
2023-01-12T19:31:52.055Z,6.20
2023-01-12T19:34:19.705Z,7.10
2023-01-12T19:36:47.189Z,6.30
2023-01-12T19:39:15.579Z,6.60
2023-01-12T19:42:02.349Z,6.00
2023-01-12T19:44:29.912Z,6.20
2023-01-12T19:46:57.671Z,5.50
2023-01-12T19:49:25.659Z,5.70
2023-01-12T19:51:53.615Z,8.20
2023-01-12T19:54:21.371Z,6.40
2023-01-12T19:56:48.931Z,6.20
2023-01-12T19:59:17.213Z,7.60
2023-01-12T20:01:44.969Z,7.00
2023-01-12T20:04:13.043Z,6.10
2023-01-12T20:06:40.767Z,6.90
2023-01-12T20:09:08.601Z,6.60
2023-01-12T20:11:37.216Z,5.80
2023-01-12T20:14:05.038Z,5.80
2023-01-12T20:16:34.124Z,6.10
2023-01-12T20:19:04.471Z,6.10
2023-01-12T20:21:32.360Z,7.50
2023-01-12T20:24:00.580Z,5.90
2023-01-12T20:26:28.124Z,6.90
2023-01-12T20:28:56.418Z,8.40
2023-01-12T20:31:24.578Z,8.50
2023-01-12T20:33:52.562Z,6.50
2023-01-12T20:36:20.732Z,6.60
2023-01-12T20:38:51.181Z,9.20
2023-01-12T20:41:19.231Z,6.20
2023-01-12T20:43:49.485Z,9.00
2023-01-12T20:46:19.340Z,6.10
2023-01-12T20:48:47.645Z,6.70
2023-01-12T20:51:16.083Z,7.70
2023-01-12T20:53:43.783Z,7.50
2023-01-12T20:56:11.556Z,7.70
2023-01-12T20:58:39.320Z,7.10
2023-01-12T21:01:09.883Z,9.10
2023-01-12T21:03:37.760Z,9.60
2023-01-12T21:06:10.354Z,6.80
2023-01-12T21:08:39.680Z,7.50
2023-01-12T21:11:07.963Z,8.20
2023-01-12T21:13:36.541Z,11.50
2023-01-12T21:16:05.411Z,7.30
2023-01-12T21:18:33.809Z,7.80
2023-01-12T21:21:02.094Z,7.30
2023-01-12T21:23:29.852Z,7.30
2023-01-12T21:25:57.925Z,6.50
2023-01-12T21:28:25.682Z,9.00
2023-01-12T21:30:54.940Z,9.40
2023-01-12T21:33:24.099Z,8.60
2023-01-12T21:35:59.324Z,9.50
2023-01-12T21:38:28.628Z,7.80
2023-01-12T21:41:00.375Z,7.40
2023-01-12T21:43:28.056Z,9.30
2023-01-12T21:45:57.708Z,7.00
2023-01-12T21:48:25.465Z,7.20
2023-01-12T21:50:54.298Z,8.60
2023-01-12T21:53:22.892Z,7.40
2023-01-12T21:55:58.585Z,7.80
2023-01-12T21:58:27.479Z,8.20
2023-01-12T22:00:55.670Z,8.20
2023-01-12T22:03:24.817Z,8.20
2023-01-12T22:05:53.069Z,8.20
2023-01-12T22:08:21.315Z,7.50
2023-01-12T22:10:48.915Z,8.10
2023-01-12T22:13:17.596Z,7.70
2023-01-12T22:15:45.267Z,8.90
2023-01-12T22:18:13.327Z,8.30
2023-01-12T22:20:42.116Z,8.30
2023-01-12T22:23:12.347Z,8.30
2023-01-12T22:25:40.505Z,7.20
2023-01-12T22:28:08.161Z,7.30
2023-01-12T22:30:35.616Z,8.30
2023-01-12T22:33:03.279Z,8.40
2023-01-12T22:35:30.848Z,8.90
2023-01-12T22:37:58.809Z,9.90
2023-01-12T22:40:26.677Z,8.00
2023-01-12T22:43:13.178Z,7.00
2023-01-12T22:45:40.997Z,7.40
2023-01-12T22:48:08.463Z,7.20
2023-01-12T22:50:35.871Z,6.90
2023-01-12T22:53:03.518Z,6.80
2023-01-12T22:55:31.896Z,8.30
2023-01-12T22:57:59.667Z,8.10
2023-01-12T23:00:27.734Z,8.60
2023-01-12T23:03:02.362Z,7.20
2023-01-12T23:05:32.785Z,9.80
2023-01-12T23:08:00.969Z,8.00
2023-01-12T23:10:28.734Z,9.10
2023-01-12T23:13:12.260Z,9.90
2023-01-12T23:15:45.709Z,10.70
2023-01-12T23:18:14.609Z,8.80
2023-01-12T23:20:42.932Z,9.50
